createdAt,value
2022-09-16T00:00:02.645Z,99.99
2022-09-16T00:01:03.705Z,99.99
2022-09-16T00:02:03.934Z,99.99
2022-09-16T00:03:04.419Z,99.99
2022-09-16T00:04:04.311Z,99.99
2022-09-16T00:05:05.499Z,99.99
2022-09-16T00:06:05.425Z,99.99
2022-09-16T00:07:06.005Z,99.99
2022-09-16T00:08:06.946Z,99.99
2022-09-16T00:09:07.447Z,99.99
2022-09-16T00:10:07.596Z,99.99
2022-09-16T00:11:08.205Z,99.99
2022-09-16T00:12:08.132Z,99.99
2022-09-16T00:13:08.847Z,99.99
2022-09-16T00:14:09.049Z,99.99
2022-09-16T00:15:10.255Z,99.99
2022-09-16T00:16:10.271Z,99.99
2022-09-16T00:17:11.175Z,99.99
2022-09-16T00:18:12.116Z,99.99
2022-09-16T00:19:12.072Z,99.99
2022-09-16T00:20:12.521Z,99.99
2022-09-16T00:21:12.453Z,99.99
2022-09-16T00:22:13.052Z,99.99
2022-09-16T00:23:14.001Z,99.99
2022-09-16T00:24:14.257Z,99.99
2022-09-16T00:25:14.864Z,99.99
2022-09-16T00:26:15.761Z,99.99
2022-09-16T00:27:16.399Z,99.99
2022-09-16T00:28:17.311Z,99.99
2022-09-16T00:29:17.963Z,99.99
2022-09-16T00:30:18.235Z,99.99
2022-09-16T00:31:19.201Z,99.99
2022-09-16T00:32:20.131Z,99.99
2022-09-16T00:33:20.320Z,99.99
2022-09-16T00:34:21.240Z,99.99
2022-09-16T00:35:21.152Z,99.99
2022-09-16T00:36:21.797Z,99.99
2022-09-16T00:37:22.396Z,99.99
2022-09-16T00:38:23.347Z,99.99
2022-09-16T00:39:23.574Z,99.99
2022-09-16T00:40:24.023Z,99.99
2022-09-16T00:41:24.535Z,99.99
2022-09-16T00:42:24.465Z,99.99
2022-09-16T00:43:25.082Z,99.99
2022-09-16T00:44:25.738Z,99.99
2022-09-16T00:45:26.623Z,99.99
2022-09-16T00:46:26.963Z,99.99
2022-09-16T00:47:27.103Z,99.99
2022-09-16T00:48:27.710Z,99.99
2022-09-16T00:49:28.046Z,99.99
2022-09-16T00:50:28.471Z,99.99
2022-09-16T00:51:28.394Z,99.99
2022-09-16T00:52:28.870Z,99.99
2022-09-16T00:53:29.093Z,99.99
2022-09-16T00:54:29.060Z,99.99
2022-09-16T00:55:30.254Z,99.99
2022-09-16T00:56:30.736Z,99.99
2022-09-16T00:57:31.362Z,99.99
2022-09-16T00:58:31.999Z,99.99
2022-09-16T00:59:32.910Z,99.99
2022-09-16T01:00:33.496Z,99.99
2022-09-16T01:01:33.635Z,99.99
2022-09-16T01:02:33.658Z,99.99
2022-09-16T01:03:34.292Z,99.99
2022-09-16T01:04:35.198Z,99.99
2022-09-16T01:05:36.110Z,99.99
2022-09-16T01:06:36.350Z,99.99
2022-09-16T01:07:36.220Z,99.99
2022-09-16T01:08:37.439Z,99.99
2022-09-16T01:09:37.515Z,99.99
2022-09-16T01:10:38.519Z,99.99
2022-09-16T01:11:39.003Z,99.99
2022-09-16T01:12:39.934Z,99.99
2022-09-16T01:13:40.262Z,99.99
2022-09-16T01:14:40.879Z,99.99
2022-09-16T01:15:41.493Z,99.99
2022-09-16T01:16:42.262Z,99.99
2022-09-16T01:17:43.144Z,99.99
2022-09-16T01:18:43.753Z,99.99
2022-09-16T01:19:44.379Z,99.99
2022-09-16T01:20:45.412Z,99.99
2022-09-16T01:21:46.037Z,99.99
2022-09-16T01:22:46.925Z,99.99
2022-09-16T01:23:47.899Z,99.99
2022-09-16T01:24:48.126Z,99.99
2022-09-16T01:25:49.058Z,99.99
2022-09-16T01:26:48.944Z,99.99
2022-09-16T01:27:49.456Z,99.99
2022-09-16T01:28:50.051Z,99.99
2022-09-16T01:29:51.324Z,99.99
2022-09-16T01:30:51.455Z,99.99
2022-09-16T01:31:52.542Z,99.99
2022-09-16T01:32:53.135Z,99.99
2022-09-16T01:33:54.350Z,99.99
2022-09-16T01:34:54.962Z,99.99
2022-09-16T01:35:55.872Z,99.99
2022-09-16T01:36:56.538Z,99.99
2022-09-16T01:37:57.746Z,99.99
2022-09-16T01:38:58.019Z,99.99
2022-09-16T01:39:59.142Z,99.99
2022-09-16T01:40:59.113Z,99.99
2022-09-16T01:41:59.004Z,99.99
2022-09-16T01:42:59.211Z,99.99
2022-09-16T01:43:59.393Z,99.99
2022-09-16T01:45:00.606Z,99.99
2022-09-16T01:46:00.707Z,99.99
2022-09-16T01:47:01.537Z,99.99
2022-09-16T01:48:02.439Z,99.99
2022-09-16T01:49:03.068Z,99.99
2022-09-16T01:50:03.701Z,99.99
2022-09-16T01:51:03.565Z,99.99
2022-09-16T01:52:04.203Z,99.99
2022-09-16T01:53:04.670Z,99.99
2022-09-16T01:54:05.334Z,99.99
2022-09-16T01:55:05.262Z,99.99
2022-09-16T01:56:06.442Z,99.99
2022-09-16T01:57:07.369Z,99.99
2022-09-16T01:58:07.731Z,99.99
2022-09-16T01:59:08.647Z,99.99
2022-09-16T02:00:09.266Z,99.99
2022-09-16T02:01:09.994Z,99.99
2022-09-16T02:02:11.567Z,99.99
2022-09-16T02:03:11.757Z,99.99
2022-09-16T02:04:12.670Z,99.99
2022-09-16T02:05:13.285Z,99.99
2022-09-16T02:06:13.894Z,99.99
2022-09-16T02:07:14.551Z,99.99
2022-09-16T02:08:15.451Z,99.99
2022-09-16T02:09:16.391Z,99.99
2022-09-16T02:10:17.336Z,99.99
2022-09-16T02:11:18.010Z,99.99
2022-09-16T02:12:19.345Z,99.99
2022-09-16T02:13:19.690Z,99.99
2022-09-16T02:14:20.122Z,99.99
2022-09-16T02:15:21.034Z,99.99
2022-09-16T02:16:22.112Z,99.99
2022-09-16T02:17:21.799Z,99.99
2022-09-16T02:18:22.413Z,99.99
2022-09-16T02:19:22.755Z,99.99
2022-09-16T02:20:23.955Z,99.99
2022-09-16T02:21:24.374Z,99.99
2022-09-16T02:22:25.033Z,99.99
2022-09-16T02:23:25.202Z,99.99
2022-09-16T02:24:25.718Z,99.99
2022-09-16T02:25:26.063Z,99.99
2022-09-16T02:26:27.243Z,99.99
2022-09-16T02:27:27.133Z,99.99
2022-09-16T02:28:28.050Z,99.99
2022-09-16T02:29:28.388Z,99.99
2022-09-16T02:30:28.999Z,99.99
2022-09-16T02:31:30.586Z,99.99
2022-09-16T02:32:30.454Z,99.99
2022-09-16T02:33:31.063Z,99.99
2022-09-16T02:34:31.997Z,99.99
2022-09-16T02:35:32.910Z,99.99
2022-09-16T02:36:32.801Z,99.99
2022-09-16T02:37:33.150Z,99.99
2022-09-16T02:38:34.056Z,99.99
2022-09-16T02:39:34.977Z,99.99
2022-09-16T02:40:36.122Z,99.99
2022-09-16T02:41:36.843Z,99.99
2022-09-16T02:42:37.774Z,99.99
2022-09-16T02:43:37.978Z,99.99
2022-09-16T02:44:38.884Z,99.99
2022-09-16T02:45:39.503Z,99.99
2022-09-16T02:46:39.975Z,99.99
2022-09-16T02:47:41.014Z,99.99
2022-09-16T02:48:41.502Z,99.99
2022-09-16T02:49:41.691Z,99.99
2022-09-16T02:50:42.182Z,99.99
2022-09-16T02:51:42.894Z,99.99
2022-09-16T02:52:44.279Z,99.99
2022-09-16T02:53:44.501Z,99.99
2022-09-16T02:54:45.038Z,99.99
2022-09-16T02:55:45.686Z,99.99
2022-09-16T02:56:46.003Z,99.99
2022-09-16T02:57:46.644Z,99.99
2022-09-16T02:58:47.286Z,99.99
2022-09-16T02:59:48.214Z,99.99
2022-09-16T03:00:48.424Z,99.99
2022-09-16T03:01:49.033Z,99.99
2022-09-16T03:02:49.187Z,99.99
2022-09-16T03:03:49.422Z,99.99
2022-09-16T03:04:49.605Z,99.99
2022-09-16T03:05:50.497Z,99.99
2022-09-16T03:06:51.110Z,99.99
2022-09-16T03:07:52.048Z,99.99
2022-09-16T03:08:52.275Z,99.99
2022-09-16T03:09:53.213Z,99.99
2022-09-16T03:10:53.117Z,99.99
2022-09-16T03:11:53.806Z,99.99
2022-09-16T03:12:54.439Z,99.99
2022-09-16T03:13:55.411Z,99.99
2022-09-16T03:14:55.486Z,99.99
2022-09-16T03:15:56.461Z,99.99
2022-09-16T03:16:57.171Z,99.99
2022-09-16T03:17:57.382Z,99.99
2022-09-16T03:18:57.300Z,99.99
2022-09-16T03:19:58.191Z,99.99
2022-09-16T03:20:58.109Z,99.99
2022-09-16T03:21:59.143Z,99.99
2022-09-16T03:22:59.792Z,99.99
2022-09-16T03:24:00.011Z,99.99
2022-09-16T03:25:00.243Z,99.99
2022-09-16T03:26:01.160Z,99.99
2022-09-16T03:27:01.366Z,99.99
2022-09-16T03:28:01.261Z,99.99
2022-09-16T03:29:01.887Z,99.99
2022-09-16T03:30:02.079Z,99.99
2022-09-16T03:31:02.573Z,99.99
2022-09-16T03:32:03.314Z,99.99
2022-09-16T03:33:04.509Z,99.99
2022-09-16T03:34:04.727Z,99.99
2022-09-16T03:35:05.334Z,99.99
2022-09-16T03:36:06.247Z,99.99
2022-09-16T03:37:06.863Z,99.99
2022-09-16T03:38:07.529Z,99.99
2022-09-16T03:39:08.698Z,99.99
2022-09-16T03:40:09.345Z,99.99
2022-09-16T03:41:09.227Z,99.99
2022-09-16T03:42:09.638Z,99.99
2022-09-16T03:43:10.554Z,99.99
2022-09-16T03:44:10.838Z,99.99
2022-09-16T03:45:11.738Z,99.99
2022-09-16T03:46:11.721Z,99.99
2022-09-16T03:47:12.503Z,99.99
2022-09-16T03:48:13.123Z,99.99
2022-09-16T03:49:13.311Z,99.99
2022-09-16T03:50:14.244Z,99.99
2022-09-16T03:51:14.721Z,99.99
2022-09-16T03:52:15.416Z,99.99
2022-09-16T03:53:15.626Z,99.99
2022-09-16T03:54:16.535Z,99.99
2022-09-16T03:55:16.759Z,99.99
2022-09-16T03:56:17.391Z,99.99
2022-09-16T03:57:18.000Z,99.99
2022-09-16T03:58:19.330Z,99.99
2022-09-16T03:59:19.555Z,99.99
2022-09-16T04:00:20.172Z,99.99
2022-09-16T04:01:21.531Z,99.99
2022-09-16T04:02:21.630Z,99.99
2022-09-16T04:03:22.473Z,99.99
2022-09-16T04:04:23.394Z,99.99
2022-09-16T04:05:24.279Z,99.99
2022-09-16T04:06:24.166Z,99.99
2022-09-16T04:07:24.658Z,99.99
2022-09-16T04:08:25.318Z,99.99
2022-09-16T04:09:26.505Z,99.99
2022-09-16T04:10:26.736Z,99.99
2022-09-16T04:11:26.967Z,99.99
2022-09-16T04:12:27.257Z,99.99
2022-09-16T04:13:28.179Z,99.99
2022-09-16T04:14:28.674Z,99.99
2022-09-16T04:15:29.110Z,99.99
2022-09-16T04:16:30.366Z,99.99
2022-09-16T04:17:31.021Z,99.99
2022-09-16T04:18:31.635Z,99.99
2022-09-16T04:19:32.854Z,99.99
2022-09-16T04:20:33.218Z,99.99
2022-09-16T04:21:33.841Z,99.99
2022-09-16T04:22:34.146Z,99.99
2022-09-16T04:23:35.072Z,99.99
2022-09-16T04:24:35.954Z,99.99
2022-09-16T04:25:36.858Z,99.99
2022-09-16T04:26:37.062Z,99.99
2022-09-16T04:27:36.970Z,99.99
2022-09-16T04:28:37.306Z,99.99
2022-09-16T04:29:37.816Z,99.99
2022-09-16T04:30:38.442Z,99.99
2022-09-16T04:31:39.287Z,99.99
2022-09-16T04:32:39.689Z,99.99
2022-09-16T04:33:40.300Z,99.99
2022-09-16T04:34:41.230Z,99.99
2022-09-16T04:35:41.842Z,99.99
2022-09-16T04:36:43.031Z,99.99
2022-09-16T04:37:42.941Z,99.99
2022-09-16T04:38:43.940Z,99.99
2022-09-16T04:39:43.744Z,99.99
2022-09-16T04:40:44.806Z,99.99
2022-09-16T04:41:45.437Z,99.99
2022-09-16T04:42:45.894Z,99.99
2022-09-16T04:43:46.090Z,99.99
2022-09-16T04:44:46.996Z,99.99
2022-09-16T04:45:48.366Z,99.99
2022-09-16T04:46:49.268Z,99.99
2022-09-16T04:47:49.753Z,99.99
2022-09-16T04:48:50.667Z,99.99
2022-09-16T04:49:51.290Z,99.99
2022-09-16T04:50:52.197Z,99.99
2022-09-16T04:51:52.390Z,99.99
2022-09-16T04:52:52.781Z,99.99
2022-09-16T04:53:53.797Z,99.99
2022-09-16T04:54:54.415Z,99.99
2022-09-16T04:55:54.620Z,99.99
2022-09-16T04:56:55.547Z,99.99
2022-09-16T04:57:55.741Z,99.99
2022-09-16T04:58:56.401Z,99.99
2022-09-16T04:59:56.703Z,99.99
2022-09-16T05:00:57.345Z,99.99
2022-09-16T05:01:58.203Z,99.99
2022-09-16T05:02:58.808Z,99.99
2022-09-16T05:03:59.707Z,99.99
2022-09-16T05:05:00.320Z,99.99
2022-09-16T05:06:00.953Z,99.99
2022-09-16T05:07:01.574Z,99.99
2022-09-16T05:08:02.190Z,99.99
2022-09-16T05:09:02.549Z,99.99
2022-09-16T05:10:02.857Z,99.99
2022-09-16T05:11:04.059Z,99.99
2022-09-16T05:12:04.300Z,99.99
2022-09-16T05:13:04.374Z,99.99
2022-09-16T05:14:05.015Z,99.99
2022-09-16T05:15:06.341Z,99.99
2022-09-16T05:16:06.683Z,99.99
2022-09-16T05:17:07.090Z,99.99
2022-09-16T05:18:07.684Z,99.99
2022-09-16T05:19:07.877Z,99.99
2022-09-16T05:20:08.796Z,99.99
2022-09-16T05:21:09.715Z,99.99
2022-09-16T05:22:10.335Z,99.99
2022-09-16T05:23:11.328Z,99.99
2022-09-16T05:24:12.374Z,99.99
2022-09-16T05:25:13.579Z,99.99
2022-09-16T05:26:13.998Z,99.99
2022-09-16T05:27:14.318Z,99.99
2022-09-16T05:28:15.232Z,99.99
2022-09-16T05:29:15.438Z,99.99
2022-09-16T05:30:16.176Z,99.99
2022-09-16T05:31:16.789Z,99.99
2022-09-16T05:32:16.765Z,99.99
2022-09-16T05:33:17.755Z,99.99
2022-09-16T05:34:17.964Z,99.99
2022-09-16T05:35:18.182Z,99.99
2022-09-16T05:36:18.398Z,99.99
2022-09-16T05:37:18.877Z,99.99
2022-09-16T05:38:19.062Z,99.99
2022-09-16T05:39:35.500Z,99.99
2022-09-16T05:40:19.858Z,99.99
2022-09-16T05:41:20.954Z,99.99
2022-09-16T05:42:21.550Z,99.99
2022-09-16T05:43:22.052Z,99.99
2022-09-16T05:44:22.989Z,99.99
2022-09-16T05:45:32.331Z,99.99
2022-09-16T05:46:23.259Z,99.99
2022-09-16T05:47:23.611Z,99.99
2022-09-16T05:48:24.219Z,99.99
2022-09-16T05:49:25.136Z,99.99
2022-09-16T05:50:25.465Z,99.99
2022-09-16T05:51:26.271Z,99.99
2022-09-16T05:52:25.611Z,99.99
2022-09-16T05:53:26.596Z,99.99
2022-09-16T05:54:27.802Z,99.99
2022-09-16T05:55:28.266Z,99.99
2022-09-16T05:56:29.191Z,99.99
2022-09-16T05:57:29.208Z,99.99
2022-09-16T05:58:30.124Z,99.99
2022-09-16T05:59:30.771Z,99.99
2022-09-16T06:00:31.064Z,99.99
2022-09-16T06:01:31.128Z,99.99
2022-09-16T06:02:31.762Z,99.99
2022-09-16T06:03:31.763Z,99.99
2022-09-16T06:04:32.685Z,99.99
2022-09-16T06:05:32.596Z,99.99
2022-09-16T06:06:33.827Z,99.99
2022-09-16T06:07:33.778Z,99.99
2022-09-16T06:08:34.390Z,99.99
2022-09-16T06:09:35.578Z,99.99
2022-09-16T06:10:36.311Z,99.99
2022-09-16T06:11:36.697Z,99.99
2022-09-16T06:12:36.413Z,99.99
2022-09-16T06:13:36.829Z,99.99
2022-09-16T06:14:37.757Z,99.99
2022-09-16T06:15:38.182Z,99.99
2022-09-16T06:16:38.356Z,99.99
2022-09-16T06:17:39.275Z,99.99
2022-09-16T06:18:40.198Z,99.99
2022-09-16T06:19:40.686Z,99.99
2022-09-16T06:20:40.894Z,99.99
2022-09-16T06:21:41.512Z,99.99
2022-09-16T06:22:42.143Z,99.99
2022-09-16T06:23:42.764Z,99.99
2022-09-16T06:24:43.261Z,99.99
2022-09-16T06:25:44.000Z,99.99
2022-09-16T06:26:44.427Z,99.99
2022-09-16T06:27:45.180Z,99.99
2022-09-16T06:28:46.070Z,99.99
2022-09-16T06:29:46.711Z,99.99
2022-09-16T06:30:48.106Z,99.99
2022-09-16T06:31:48.175Z,99.99
2022-09-16T06:32:48.075Z,99.99
2022-09-16T06:33:48.775Z,99.99
2022-09-16T06:34:49.462Z,99.99
2022-09-16T06:35:49.955Z,99.99
2022-09-16T06:36:50.943Z,99.99
2022-09-16T06:37:50.135Z,99.99
2022-09-16T06:38:51.355Z,99.99
2022-09-16T06:39:51.296Z,99.99
2022-09-16T06:40:52.256Z,99.99
2022-09-16T06:41:53.041Z,99.99
2022-09-16T06:42:55.219Z,99.99
2022-09-16T06:43:53.606Z,99.99
2022-09-16T06:44:54.199Z,99.99
2022-09-16T06:45:54.670Z,99.99
2022-09-16T06:46:55.187Z,99.99
2022-09-16T06:47:56.094Z,99.99
2022-09-16T06:48:58.004Z,99.99
2022-09-16T06:49:57.203Z,99.99
2022-09-16T06:50:57.397Z,99.99
2022-09-16T06:51:58.590Z,99.99
2022-09-16T06:52:59.607Z,99.99
2022-09-16T06:54:00.333Z,99.99
2022-09-16T06:55:00.773Z,99.99
2022-09-16T06:56:02.107Z,99.99
2022-09-16T06:57:02.342Z,99.99
2022-09-16T06:58:02.395Z,99.99
2022-09-16T06:59:03.646Z,99.99
2022-09-16T07:00:04.294Z,99.99
2022-09-16T07:01:05.733Z,99.99
2022-09-16T07:02:06.435Z,99.99
2022-09-16T07:03:06.813Z,99.99
2022-09-16T07:04:07.249Z,99.99
2022-09-16T07:05:07.440Z,99.99
2022-09-16T07:06:08.068Z,99.99
2022-09-16T07:07:15.201Z,99.99
2022-09-16T07:08:09.120Z,99.99
2022-09-16T07:09:09.331Z,99.99
2022-09-16T07:10:09.264Z,99.99
2022-09-16T07:11:10.584Z,99.99
2022-09-16T07:12:10.996Z,99.99
2022-09-16T07:13:11.184Z,99.99
2022-09-16T07:14:11.883Z,99.99
2022-09-16T07:15:12.508Z,99.99
2022-09-16T07:16:18.864Z,99.99
2022-09-16T07:17:13.187Z,99.99
2022-09-16T07:18:14.220Z,99.99
2022-09-16T07:19:14.858Z,99.99
2022-09-16T07:20:15.792Z,99.99
2022-09-16T07:21:16.713Z,99.99
2022-09-16T07:22:17.659Z,99.99
2022-09-16T07:23:18.150Z,99.99
2022-09-16T07:24:18.646Z,99.99
2022-09-16T07:25:19.557Z,99.99
2022-09-16T07:26:20.610Z,99.99
2022-09-16T07:27:21.022Z,99.99
2022-09-16T07:28:20.784Z,99.99
2022-09-16T07:29:21.775Z,99.99
2022-09-16T07:30:22.986Z,99.99
2022-09-16T07:31:23.588Z,99.99
2022-09-16T07:32:23.957Z,99.99
2022-09-16T07:33:24.176Z,99.99
2022-09-16T07:34:24.880Z,99.99
2022-09-16T07:35:25.375Z,99.99
2022-09-16T07:36:25.590Z,99.99
2022-09-16T07:37:26.544Z,99.99
2022-09-16T07:38:27.600Z,99.99
2022-09-16T07:39:27.819Z,99.99
2022-09-16T07:40:32.123Z,99.99
2022-09-16T07:41:29.126Z,99.99
2022-09-16T07:42:29.920Z,99.99
2022-09-16T07:43:29.673Z,99.99
2022-09-16T07:44:29.884Z,99.99
2022-09-16T07:45:30.242Z,99.99
2022-09-16T07:46:30.744Z,99.99
2022-09-16T07:47:30.681Z,99.99
2022-09-16T07:48:34.522Z,99.99
2022-09-16T07:49:31.376Z,99.99
2022-09-16T07:50:31.872Z,99.99
2022-09-16T07:51:32.771Z,99.99
2022-09-16T07:52:33.146Z,99.99
2022-09-16T07:53:35.116Z,99.99
2022-09-16T07:54:34.954Z,99.99
2022-09-16T07:55:35.269Z,99.99
2022-09-16T07:56:35.611Z,99.99
2022-09-16T07:57:36.341Z,99.99
2022-09-16T07:58:36.641Z,99.99
2022-09-16T07:59:37.276Z,99.99
2022-09-16T08:00:37.768Z,99.99
2022-09-16T08:01:42.784Z,99.99
2022-09-16T08:02:38.708Z,99.99
2022-09-16T08:03:39.617Z,99.99
2022-09-16T08:04:40.424Z,99.99
2022-09-16T08:05:40.619Z,99.99
2022-09-16T08:06:41.536Z,99.99
2022-09-16T08:07:42.181Z,99.99
2022-09-16T08:08:43.159Z,99.99
2022-09-16T08:09:50.877Z,99.99
2022-09-16T08:10:44.555Z,99.99
2022-09-16T08:11:45.724Z,99.99
2022-09-16T08:12:46.428Z,99.99
2022-09-16T08:13:46.597Z,99.99
2022-09-16T08:14:47.482Z,99.99
2022-09-16T08:15:47.975Z,99.99
2022-09-16T08:16:48.430Z,99.99
2022-09-16T08:17:49.017Z,99.99
2022-09-16T08:18:49.642Z,99.99
2022-09-16T08:19:50.003Z,99.99
2022-09-16T08:20:51.220Z,99.99
2022-09-16T08:21:51.425Z,99.99
2022-09-16T08:22:54.786Z,99.99
2022-09-16T08:23:52.315Z,99.99
2022-09-16T08:24:52.843Z,99.99
2022-09-16T08:25:53.040Z,99.99
2022-09-16T08:26:53.864Z,99.99
2022-09-16T08:27:58.306Z,99.99
2022-09-16T08:29:14.115Z,99.99
2022-09-16T08:29:54.589Z,99.99
2022-09-16T08:30:58.628Z,99.99
2022-09-16T08:31:55.103Z,99.99
2022-09-16T08:32:54.932Z,99.99
2022-09-16T08:33:56.157Z,99.99
2022-09-16T08:34:57.183Z,99.99
2022-09-16T08:35:57.999Z,99.99
2022-09-16T08:36:58.212Z,99.99
2022-09-16T08:37:58.559Z,99.99
2022-09-16T08:38:59.920Z,99.99
2022-09-16T08:40:00.585Z,99.99
2022-09-16T08:41:00.998Z,99.99
2022-09-16T08:42:01.338Z,99.99
2022-09-16T08:43:02.433Z,99.99
2022-09-16T08:44:02.753Z,99.99
2022-09-16T08:45:03.541Z,99.99
2022-09-16T08:46:03.632Z,99.99
2022-09-16T08:47:03.691Z,99.99
2022-09-16T08:48:04.372Z,99.99
2022-09-16T08:49:05.352Z,99.99
2022-09-16T08:50:05.694Z,99.99
2022-09-16T08:51:05.976Z,99.99
2022-09-16T08:52:06.605Z,99.99
2022-09-16T08:53:07.245Z,99.99
2022-09-16T08:54:07.434Z,99.99
2022-09-16T08:55:08.158Z,99.99
2022-09-16T08:56:08.217Z,99.99
2022-09-16T08:57:09.301Z,99.99
2022-09-16T08:58:09.816Z,99.99
2022-09-16T08:59:10.464Z,99.99
2022-09-16T09:00:11.106Z,99.99
2022-09-16T09:01:11.583Z,99.99
2022-09-16T09:03:13.168Z,99.99
2022-09-16T09:04:13.390Z,99.99
2022-09-16T09:05:13.950Z,99.99
2022-09-16T09:06:14.144Z,99.99
2022-09-16T09:07:14.745Z,99.99
2022-09-16T09:08:15.661Z,99.99
2022-09-16T09:09:15.577Z,99.99
2022-09-16T09:10:16.560Z,99.99
2022-09-16T09:11:17.481Z,99.99
2022-09-16T09:13:21.212Z,99.99
2022-09-16T09:14:19.260Z,99.99
2022-09-16T09:15:22.033Z,99.99
2022-09-16T09:16:20.621Z,99.99
2022-09-16T09:17:21.275Z,99.99
2022-09-16T09:18:22.110Z,99.99
2022-09-16T09:19:22.730Z,99.99
2022-09-16T09:20:23.342Z,99.99
2022-09-16T09:21:27.233Z,99.99
2022-09-16T09:22:24.870Z,99.99
2022-09-16T09:23:24.827Z,99.99
2022-09-16T09:24:25.033Z,99.99
2022-09-16T09:25:25.992Z,99.99
2022-09-16T09:26:26.483Z,99.99
2022-09-16T09:27:27.108Z,99.99
2022-09-16T09:28:28.705Z,99.99
2022-09-16T09:29:29.028Z,99.99
2022-09-16T09:30:30.072Z,99.99
2022-09-16T09:31:31.034Z,99.99
2022-09-16T09:32:42.019Z,99.99
2022-09-16T09:33:54.335Z,99.99
2022-09-16T09:34:32.613Z,99.99
2022-09-16T09:35:32.471Z,99.99
2022-09-16T09:36:32.697Z,99.99
2022-09-16T09:37:32.601Z,99.99
2022-09-16T09:38:33.802Z,99.99
2022-09-16T09:39:33.711Z,99.99
2022-09-16T09:40:35.117Z,99.99
2022-09-16T09:41:35.152Z,99.99
2022-09-16T09:42:35.352Z,99.99
2022-09-16T09:43:36.063Z,99.99
2022-09-16T09:44:36.771Z,99.99
2022-09-16T09:45:37.520Z,99.99
2022-09-16T09:46:37.688Z,99.99
2022-09-16T09:47:38.014Z,99.99
2022-09-16T09:48:38.685Z,99.99
2022-09-16T09:49:38.906Z,99.99
2022-09-16T09:50:39.818Z,99.99
2022-09-16T09:51:40.754Z,99.99
2022-09-16T09:52:41.261Z,99.99
2022-09-16T09:53:41.466Z,99.99
2022-09-16T09:54:42.470Z,99.99
2022-09-16T09:55:43.463Z,99.99
2022-09-16T09:56:44.375Z,99.99
2022-09-16T09:57:45.297Z,99.99
2022-09-16T09:58:46.161Z,99.99
2022-09-16T09:59:46.469Z,99.99
2022-09-16T10:00:47.535Z,99.99
2022-09-16T10:01:47.686Z,99.99
2022-09-16T10:02:54.274Z,99.99
2022-09-16T10:03:48.192Z,99.99
2022-09-16T10:04:49.378Z,99.99
2022-09-16T10:05:49.903Z,99.99
2022-09-16T10:06:50.160Z,99.99
2022-09-16T10:07:50.549Z,99.99
2022-09-16T10:08:51.485Z,99.99
2022-09-16T10:09:51.719Z,99.99
2022-09-16T10:10:51.928Z,99.78
2022-09-16T10:11:52.863Z,98.53
2022-09-16T10:12:53.802Z,98.14
2022-09-16T10:13:54.373Z,99.99
2022-09-16T10:14:54.711Z,99.99
2022-09-16T10:16:00.459Z,99.21
2022-09-16T10:16:56.467Z,99.21
2022-09-16T10:17:57.105Z,99.4
2022-09-16T10:18:57.401Z,98.34
2022-09-16T10:19:58.044Z,99.21
2022-09-16T10:20:59.014Z,98.91
2022-09-16T10:21:59.217Z,98.72
2022-09-16T10:22:59.826Z,99.21
2022-09-16T10:24:00.022Z,99.21
2022-09-16T10:25:00.660Z,98.63
2022-09-16T10:26:00.878Z,98.82
2022-09-16T10:27:01.810Z,99.83
2022-09-16T10:28:02.714Z,99.99
2022-09-16T10:29:03.344Z,99.99
2022-09-16T10:30:03.683Z,99.99
2022-09-16T10:31:04.535Z,99.99
2022-09-16T10:32:05.382Z,99.99
2022-09-16T10:33:06.048Z,99.99
2022-09-16T10:34:06.302Z,99.99
2022-09-16T10:35:07.199Z,99.99
2022-09-16T10:36:07.930Z,99.99
2022-09-16T10:37:09.141Z,99.99
2022-09-16T10:38:09.804Z,99.99
2022-09-16T10:39:11.019Z,99.99
2022-09-16T10:40:11.376Z,99.99
2022-09-16T10:41:11.848Z,99.99
2022-09-16T10:42:12.792Z,99.99
2022-09-16T10:43:13.005Z,99.99
2022-09-16T10:44:17.114Z,99.99
2022-09-16T10:45:13.648Z,99.99
2022-09-16T10:46:13.855Z,99.99
2022-09-16T10:47:14.297Z,99.99
2022-09-16T10:48:15.315Z,99.99
2022-09-16T10:49:15.822Z,99.99
2022-09-16T10:50:16.712Z,99.99
2022-09-16T10:51:17.653Z,99.99
2022-09-16T10:52:18.171Z,99.99
2022-09-16T10:53:18.492Z,99.99
2022-09-16T10:54:19.476Z,99.99
2022-09-16T10:55:20.411Z,99.99
2022-09-16T10:56:21.071Z,99.99
2022-09-16T10:57:20.978Z,99.99
2022-09-16T10:58:22.117Z,99.54
2022-09-16T10:59:22.696Z,98.05
2022-09-16T11:00:22.742Z,97.96
2022-09-16T11:01:26.189Z,98.44
2022-09-16T11:02:24.151Z,98.87
2022-09-16T11:03:25.508Z,98.44
2022-09-16T11:04:26.440Z,97.28
2022-09-16T11:05:30.758Z,96.89
2022-09-16T11:06:27.259Z,96.51
2022-09-16T11:07:27.860Z,98
2022-09-16T11:08:28.074Z,97.81
2022-09-16T11:09:28.293Z,97.62
2022-09-16T11:10:29.221Z,97.81
2022-09-16T11:11:30.206Z,98.19
2022-09-16T11:12:30.812Z,97.24
2022-09-16T11:13:31.009Z,95.65
2022-09-16T11:14:32.292Z,96.32
2022-09-16T11:15:32.329Z,94.01
2022-09-16T11:16:33.288Z,95.21
2022-09-16T11:17:33.681Z,93.43
2022-09-16T11:18:34.725Z,91.7
2022-09-16T11:19:35.608Z,92.28
2022-09-16T11:20:35.816Z,93.05
2022-09-16T11:21:36.064Z,93.91
2022-09-16T11:22:36.988Z,93.91
2022-09-16T11:23:37.604Z,94.01
2022-09-16T11:24:38.131Z,92.9
2022-09-16T11:25:38.328Z,92.32
2022-09-16T11:26:39.291Z,92.42
2022-09-16T11:27:39.660Z,90.97
2022-09-16T11:28:40.846Z,90.92
2022-09-16T11:29:41.443Z,91.21
2022-09-16T11:30:41.793Z,90.64
2022-09-16T11:31:41.876Z,89
2022-09-16T11:32:43.306Z,88.32
2022-09-16T11:33:43.507Z,88.75
2022-09-16T11:34:43.341Z,85.28
2022-09-16T11:35:44.544Z,84.7
2022-09-16T11:36:45.266Z,87.12
2022-09-16T11:37:45.866Z,83.84
2022-09-16T11:38:50.977Z,83.07
2022-09-16T11:39:47.341Z,83.55
2022-09-16T11:40:47.996Z,83.07
2022-09-16T11:41:48.331Z,85.28
2022-09-16T11:42:48.248Z,82.59
2022-09-16T11:43:49.150Z,82.68
2022-09-16T11:44:49.915Z,82.74
2022-09-16T11:45:50.261Z,83.7
2022-09-16T11:46:51.096Z,84.66
2022-09-16T11:47:51.181Z,83.99
2022-09-16T11:48:51.535Z,84.22
2022-09-16T11:49:52.027Z,85.63
2022-09-16T11:50:52.257Z,85.43
2022-09-16T11:51:53.151Z,86.4
2022-09-16T11:52:54.055Z,85.43
2022-09-16T11:53:55.281Z,84.95
2022-09-16T11:54:55.343Z,84.56
2022-09-16T11:55:55.985Z,85.24
2022-09-16T11:56:56.986Z,84.47
2022-09-16T11:57:57.755Z,84.38
2022-09-16T11:58:58.740Z,85.14
2022-09-16T11:59:59.317Z,84.28
2022-09-16T12:01:00.046Z,83.99
2022-09-16T12:02:00.778Z,84.47
2022-09-16T12:03:01.325Z,82.54
2022-09-16T12:04:02.096Z,83.99
2022-09-16T12:05:02.306Z,82.97
2022-09-16T12:06:03.220Z,81.91
2022-09-16T12:07:04.041Z,82.39
2022-09-16T12:08:05.078Z,82.24
2022-09-16T12:09:06.571Z,82.92
2022-09-16T12:10:06.577Z,83.01
2022-09-16T12:11:06.639Z,80.6
2022-09-16T12:12:07.144Z,80.74
2022-09-16T12:13:07.344Z,79.54
2022-09-16T12:14:11.396Z,79.16
2022-09-16T12:15:11.597Z,78.77
2022-09-16T12:16:08.969Z,80.89
2022-09-16T12:17:10.268Z,79.83
2022-09-16T12:18:10.969Z,80.41
2022-09-16T12:19:11.581Z,83.01
2022-09-16T12:20:11.879Z,82.53
2022-09-16T12:21:12.803Z,80.89
2022-09-16T12:22:13.750Z,78.86
2022-09-16T12:23:13.667Z,79.83
2022-09-16T12:24:14.886Z,80.89
2022-09-16T12:25:14.858Z,80.41
2022-09-16T12:26:16.074Z,81.76
2022-09-16T12:27:16.341Z,81.57
2022-09-16T12:28:16.647Z,80.94
2022-09-16T12:29:16.570Z,82.2
2022-09-16T12:30:18.216Z,81.33
2022-09-16T12:31:23.125Z,83.16
2022-09-16T12:32:19.450Z,84.22
2022-09-16T12:33:20.393Z,84.7
2022-09-16T12:34:20.733Z,83.84
2022-09-16T12:35:22.007Z,84.9
2022-09-16T12:36:25.844Z,85.63
2022-09-16T12:37:22.591Z,85.53
2022-09-16T12:38:23.210Z,86.21
2022-09-16T12:39:24.125Z,87.6
2022-09-16T12:40:24.187Z,86.83
2022-09-16T12:41:24.931Z,84.97
2022-09-16T12:42:25.275Z,85.54
2022-09-16T12:43:26.188Z,88.19
2022-09-16T12:44:39.859Z,89.15
2022-09-16T12:45:27.437Z,90.55
2022-09-16T12:46:27.509Z,92.09
2022-09-16T12:47:28.182Z,91.61
2022-09-16T12:48:29.403Z,92.33
2022-09-16T12:49:30.163Z,91.66
2022-09-16T12:50:30.801Z,90.31
2022-09-16T12:51:31.033Z,91.61
2022-09-16T12:52:31.716Z,92.67
2022-09-16T12:53:32.353Z,93.05
2022-09-16T12:54:41.239Z,93.77
2022-09-16T12:55:34.011Z,96.18
2022-09-16T12:56:34.355Z,96.13
2022-09-16T12:57:34.483Z,96.13
2022-09-16T12:58:35.424Z,99.01
2022-09-16T12:59:35.348Z,98.33
2022-09-16T13:00:36.112Z,99.01
2022-09-16T13:01:37.114Z,99.99
2022-09-16T13:02:37.785Z,99.99